sensor_id;sensor_type;location;lat;lon;timestamp;P1;durP1;ratioP1;P2;durP2;ratioP2
15258;SDS011;34462;51.368;12.364;2023-03-13T00:02:01;10.40;;;4.70;;
15258;SDS011;34462;51.368;12.364;2023-03-13T00:04:30;8.60;;;5.00;;
15258;SDS011;34462;51.368;12.364;2023-03-13T00:06:58;8.67;;;5.07;;
15258;SDS011;34462;51.368;12.364;2023-03-13T00:09:26;6.57;;;4.23;;
15258;SDS011;34462;51.368;12.364;2023-03-13T00:11:55;13.27;;;5.50;;
15258;SDS011;34462;51.368;12.364;2023-03-13T00:14:23;8.90;;;4.87;;
15258;SDS011;34462;51.368;12.364;2023-03-13T00:16:52;11.13;;;4.77;;
15258;SDS011;34462;51.368;12.364;2023-03-13T00:19:21;7.47;;;4.27;;
15258;SDS011;34462;51.368;12.364;2023-03-13T00:21:49;9.87;;;4.73;;
15258;SDS011;34462;51.368;12.364;2023-03-13T00:24:17;7.17;;;4.37;;
15258;SDS011;34462;51.368;12.364;2023-03-13T00:26:45;11.40;;;5.07;;
15258;SDS011;34462;51.368;12.364;2023-03-13T00:29:13;8.07;;;4.83;;
15258;SDS011;34462;51.368;12.364;2023-03-13T00:31:41;9.07;;;4.70;;
15258;SDS011;34462;51.368;12.364;2023-03-13T00:34:11;10.47;;;4.30;;
15258;SDS011;34462;51.368;12.364;2023-03-13T00:36:39;8.00;;;4.57;;
15258;SDS011;34462;51.368;12.364;2023-03-13T00:39:08;11.90;;;4.77;;
15258;SDS011;34462;51.368;12.364;2023-03-13T00:41:36;9.90;;;4.77;;
15258;SDS011;34462;51.368;12.364;2023-03-13T00:44:04;8.47;;;4.17;;
15258;SDS011;34462;51.368;12.364;2023-03-13T00:46:33;7.23;;;4.27;;
15258;SDS011;34462;51.368;12.364;2023-03-13T00:49:02;11.10;;;4.53;;
15258;SDS011;34462;51.368;12.364;2023-03-13T00:51:32;11.07;;;4.83;;
15258;SDS011;34462;51.368;12.364;2023-03-13T00:54:02;10.83;;;4.17;;
15258;SDS011;34462;51.368;12.364;2023-03-13T00:56:30;12.23;;;5.10;;
15258;SDS011;34462;51.368;12.364;2023-03-13T00:58:58;8.73;;;4.77;;
15258;SDS011;34462;51.368;12.364;2023-03-13T01:01:28;11.13;;;4.53;;
15258;SDS011;34462;51.368;12.364;2023-03-13T01:03:59;11.83;;;4.53;;
15258;SDS011;34462;51.368;12.364;2023-03-13T01:06:30;11.43;;;4.53;;
15258;SDS011;34462;51.368;12.364;2023-03-13T01:09:03;8.57;;;3.70;;
15258;SDS011;34462;51.368;12.364;2023-03-13T01:11:33;10.07;;;4.60;;
15258;SDS011;34462;51.368;12.364;2023-03-13T01:14:05;11.27;;;4.40;;
15258;SDS011;34462;51.368;12.364;2023-03-13T01:16:36;14.57;;;4.80;;
15258;SDS011;34462;51.368;12.364;2023-03-13T01:19:06;12.20;;;4.80;;
15258;SDS011;34462;51.368;12.364;2023-03-13T01:21:40;9.47;;;4.20;;
15258;SDS011;34462;51.368;12.364;2023-03-13T01:24:10;9.47;;;3.90;;
15258;SDS011;34462;51.368;12.364;2023-03-13T01:26:39;11.93;;;4.47;;
15258;SDS011;34462;51.368;12.364;2023-03-13T01:29:07;11.20;;;4.27;;
15258;SDS011;34462;51.368;12.364;2023-03-13T01:31:35;10.17;;;3.97;;
15258;SDS011;34462;51.368;12.364;2023-03-13T01:34:04;9.23;;;3.37;;
15258;SDS011;34462;51.368;12.364;2023-03-13T01:36:34;9.23;;;3.63;;
15258;SDS011;34462;51.368;12.364;2023-03-13T01:39:05;7.47;;;3.93;;
15258;SDS011;34462;51.368;12.364;2023-03-13T01:41:33;11.03;;;3.73;;
15258;SDS011;34462;51.368;12.364;2023-03-13T01:44:03;10.50;;;3.53;;
15258;SDS011;34462;51.368;12.364;2023-03-13T01:46:32;11.43;;;4.07;;
15258;SDS011;34462;51.368;12.364;2023-03-13T01:49:01;9.40;;;3.20;;
15258;SDS011;34462;51.368;12.364;2023-03-13T01:51:34;8.00;;;3.20;;
15258;SDS011;34462;51.368;12.364;2023-03-13T01:54:10;10.37;;;3.63;;
15258;SDS011;34462;51.368;12.364;2023-03-13T01:56:44;10.03;;;4.00;;
15258;SDS011;34462;51.368;12.364;2023-03-13T01:59:17;10.87;;;3.93;;
15258;SDS011;34462;51.368;12.364;2023-03-13T02:01:52;8.60;;;3.50;;
15258;SDS011;34462;51.368;12.364;2023-03-13T02:04:26;11.00;;;4.03;;
15258;SDS011;34462;51.368;12.364;2023-03-13T02:07:03;9.47;;;3.83;;
15258;SDS011;34462;51.368;12.364;2023-03-13T02:09:41;9.03;;;3.20;;
15258;SDS011;34462;51.368;12.364;2023-03-13T02:12:17;8.97;;;3.60;;
15258;SDS011;34462;51.368;12.364;2023-03-13T02:14:56;7.93;;;3.57;;
15258;SDS011;34462;51.368;12.364;2023-03-13T02:17:29;9.60;;;3.23;;
15258;SDS011;34462;51.368;12.364;2023-03-13T02:20:00;15.27;;;3.50;;
15258;SDS011;34462;51.368;12.364;2023-03-13T02:22:30;14.47;;;3.87;;
15258;SDS011;34462;51.368;12.364;2023-03-13T02:25:14;12.03;;;4.00;;
15258;SDS011;34462;51.368;12.364;2023-03-13T02:27:59;9.30;;;3.50;;
15258;SDS011;34462;51.368;12.364;2023-03-13T02:30:33;11.67;;;3.13;;
15258;SDS011;34462;51.368;12.364;2023-03-13T02:33:01;13.23;;;3.33;;
15258;SDS011;34462;51.368;12.364;2023-03-13T02:35:30;10.30;;;3.73;;
15258;SDS011;34462;51.368;12.364;2023-03-13T02:38:03;10.77;;;3.27;;
15258;SDS011;34462;51.368;12.364;2023-03-13T02:40:38;10.17;;;3.40;;
15258;SDS011;34462;51.368;12.364;2023-03-13T02:43:13;11.93;;;3.60;;
15258;SDS011;34462;51.368;12.364;2023-03-13T02:46:00;8.60;;;3.57;;
15258;SDS011;34462;51.368;12.364;2023-03-13T02:48:32;9.93;;;3.23;;
15258;SDS011;34462;51.368;12.364;2023-03-13T02:51:05;11.30;;;2.83;;
15258;SDS011;34462;51.368;12.364;2023-03-13T02:53:42;9.03;;;3.47;;
15258;SDS011;34462;51.368;12.364;2023-03-13T02:56:16;9.67;;;3.53;;
15258;SDS011;34462;51.368;12.364;2023-03-13T02:58:48;10.20;;;3.20;;
15258;SDS011;34462;51.368;12.364;2023-03-13T03:01:16;11.87;;;3.30;;
15258;SDS011;34462;51.368;12.364;2023-03-13T03:03:45;8.93;;;2.97;;
15258;SDS011;34462;51.368;12.364;2023-03-13T03:06:14;12.57;;;3.93;;
15258;SDS011;34462;51.368;12.364;2023-03-13T03:08:42;13.33;;;3.60;;
15258;SDS011;34462;51.368;12.364;2023-03-13T03:11:10;8.73;;;3.43;;
15258;SDS011;34462;51.368;12.364;2023-03-13T03:13:40;11.07;;;3.60;;
15258;SDS011;34462;51.368;12.364;2023-03-13T03:16:09;10.37;;;3.47;;
15258;SDS011;34462;51.368;12.364;2023-03-13T03:18:43;8.80;;;3.10;;
15258;SDS011;34462;51.368;12.364;2023-03-13T03:21:12;9.13;;;3.13;;
15258;SDS011;34462;51.368;12.364;2023-03-13T03:23:40;10.77;;;3.87;;
15258;SDS011;34462;51.368;12.364;2023-03-13T03:26:08;10.23;;;3.17;;
15258;SDS011;34462;51.368;12.364;2023-03-13T03:28:36;12.90;;;3.40;;
15258;SDS011;34462;51.368;12.364;2023-03-13T03:31:06;8.67;;;3.30;;
15258;SDS011;34462;51.368;12.364;2023-03-13T03:33:36;15.27;;;3.47;;
15258;SDS011;34462;51.368;12.364;2023-03-13T03:36:06;11.77;;;3.50;;
15258;SDS011;34462;51.368;12.364;2023-03-13T03:38:39;12.60;;;3.17;;
15258;SDS011;34462;51.368;12.364;2023-03-13T03:41:08;11.00;;;3.90;;
15258;SDS011;34462;51.368;12.364;2023-03-13T03:43:39;10.57;;;3.70;;
15258;SDS011;34462;51.368;12.364;2023-03-13T03:46:09;12.63;;;2.97;;
15258;SDS011;34462;51.368;12.364;2023-03-13T03:48:38;10.23;;;4.07;;
15258;SDS011;34462;51.368;12.364;2023-03-13T03:51:06;10.93;;;3.20;;
15258;SDS011;34462;51.368;12.364;2023-03-13T03:53:34;10.37;;;3.30;;
15258;SDS011;34462;51.368;12.364;2023-03-13T03:56:03;12.50;;;3.67;;
15258;SDS011;34462;51.368;12.364;2023-03-13T03:58:32;11.10;;;2.90;;
15258;SDS011;34462;51.368;12.364;2023-03-13T04:01:00;10.43;;;3.60;;
15258;SDS011;34462;51.368;12.364;2023-03-13T04:03:29;12.07;;;3.33;;
15258;SDS011;34462;51.368;12.364;2023-03-13T04:05:58;12.37;;;2.97;;
15258;SDS011;34462;51.368;12.364;2023-03-13T04:08:27;10.67;;;3.00;;
15258;SDS011;34462;51.368;12.364;2023-03-13T04:10:55;8.27;;;3.20;;
15258;SDS011;34462;51.368;12.364;2023-03-13T04:13:23;12.17;;;3.27;;
15258;SDS011;34462;51.368;12.364;2023-03-13T04:15:51;13.17;;;3.57;;
15258;SDS011;34462;51.368;12.364;2023-03-13T04:18:20;10.13;;;3.73;;
15258;SDS011;34462;51.368;12.364;2023-03-13T04:20:49;9.90;;;3.20;;
15258;SDS011;34462;51.368;12.364;2023-03-13T04:23:26;9.57;;;3.17;;
15258;SDS011;34462;51.368;12.364;2023-03-13T04:25:54;9.53;;;3.33;;
15258;SDS011;34462;51.368;12.364;2023-03-13T04:28:22;11.17;;;3.07;;
15258;SDS011;34462;51.368;12.364;2023-03-13T04:30:50;9.43;;;2.80;;
15258;SDS011;34462;51.368;12.364;2023-03-13T04:33:22;7.53;;;2.93;;
15258;SDS011;34462;51.368;12.364;2023-03-13T04:35:52;11.07;;;3.20;;
15258;SDS011;34462;51.368;12.364;2023-03-13T04:38:20;11.37;;;3.03;;
15258;SDS011;34462;51.368;12.364;2023-03-13T04:40:48;10.20;;;2.87;;
15258;SDS011;34462;51.368;12.364;2023-03-13T04:43:16;9.07;;;3.20;;
15258;SDS011;34462;51.368;12.364;2023-03-13T04:45:45;12.73;;;3.00;;
15258;SDS011;34462;51.368;12.364;2023-03-13T04:48:13;11.87;;;3.53;;
15258;SDS011;34462;51.368;12.364;2023-03-13T04:50:41;9.30;;;3.23;;
15258;SDS011;34462;51.368;12.364;2023-03-13T04:53:10;8.23;;;2.93;;
15258;SDS011;34462;51.368;12.364;2023-03-13T04:55:39;11.67;;;3.27;;
15258;SDS011;34462;51.368;12.364;2023-03-13T04:58:08;11.83;;;3.33;;
15258;SDS011;34462;51.368;12.364;2023-03-13T05:00:38;11.10;;;3.33;;
15258;SDS011;34462;51.368;12.364;2023-03-13T05:03:07;6.67;;;2.60;;
15258;SDS011;34462;51.368;12.364;2023-03-13T05:05:35;13.17;;;3.10;;
15258;SDS011;34462;51.368;12.364;2023-03-13T05:08:03;9.03;;;2.50;;
15258;SDS011;34462;51.368;12.364;2023-03-13T05:10:33;8.73;;;2.57;;
15258;SDS011;34462;51.368;12.364;2023-03-13T05:13:01;13.00;;;3.00;;
15258;SDS011;34462;51.368;12.364;2023-03-13T05:15:29;9.63;;;4.23;;
15258;SDS011;34462;51.368;12.364;2023-03-13T05:17:57;8.43;;;2.80;;
15258;SDS011;34462;51.368;12.364;2023-03-13T05:20:25;8.23;;;2.83;;
15258;SDS011;34462;51.368;12.364;2023-03-13T05:22:54;10.30;;;3.30;;
15258;SDS011;34462;51.368;12.364;2023-03-13T05:25:22;10.03;;;3.20;;
15258;SDS011;34462;51.368;12.364;2023-03-13T05:27:51;9.07;;;3.20;;
15258;SDS011;34462;51.368;12.364;2023-03-13T05:30:19;9.33;;;3.00;;
15258;SDS011;34462;51.368;12.364;2023-03-13T05:32:48;8.57;;;3.23;;
15258;SDS011;34462;51.368;12.364;2023-03-13T05:35:16;12.20;;;3.70;;
15258;SDS011;34462;51.368;12.364;2023-03-13T05:37:45;11.17;;;3.30;;
15258;SDS011;34462;51.368;12.364;2023-03-13T05:40:13;11.13;;;3.03;;
15258;SDS011;34462;51.368;12.364;2023-03-13T05:42:41;14.17;;;3.77;;
15258;SDS011;34462;51.368;12.364;2023-03-13T05:45:12;11.80;;;3.30;;
15258;SDS011;34462;51.368;12.364;2023-03-13T05:47:40;8.30;;;3.20;;
15258;SDS011;34462;51.368;12.364;2023-03-13T05:50:09;10.60;;;3.10;;
15258;SDS011;34462;51.368;12.364;2023-03-13T05:52:37;13.10;;;3.10;;
15258;SDS011;34462;51.368;12.364;2023-03-13T05:55:06;9.27;;;3.43;;
15258;SDS011;34462;51.368;12.364;2023-03-13T05:57:35;9.90;;;3.43;;
15258;SDS011;34462;51.368;12.364;2023-03-13T06:00:05;11.07;;;3.13;;
15258;SDS011;34462;51.368;12.364;2023-03-13T06:02:35;9.67;;;3.20;;
15258;SDS011;34462;51.368;12.364;2023-03-13T06:05:04;9.33;;;2.70;;
15258;SDS011;34462;51.368;12.364;2023-03-13T06:07:33;9.77;;;2.73;;
15258;SDS011;34462;51.368;12.364;2023-03-13T06:10:01;10.07;;;3.20;;
15258;SDS011;34462;51.368;12.364;2023-03-13T06:12:30;11.77;;;3.30;;
15258;SDS011;34462;51.368;12.364;2023-03-13T06:14:58;6.73;;;2.40;;
15258;SDS011;34462;51.368;12.364;2023-03-13T06:17:27;10.70;;;2.90;;
15258;SDS011;34462;51.368;12.364;2023-03-13T06:19:56;11.07;;;2.93;;
15258;SDS011;34462;51.368;12.364;2023-03-13T06:22:24;9.40;;;2.83;;
15258;SDS011;34462;51.368;12.364;2023-03-13T06:24:53;9.87;;;3.17;;
15258;SDS011;34462;51.368;12.364;2023-03-13T06:27:22;8.53;;;2.73;;
15258;SDS011;34462;51.368;12.364;2023-03-13T06:29:50;12.83;;;2.93;;
15258;SDS011;34462;51.368;12.364;2023-03-13T06:32:18;13.43;;;3.60;;
15258;SDS011;34462;51.368;12.364;2023-03-13T06:34:47;12.80;;;3.07;;
15258;SDS011;34462;51.368;12.364;2023-03-13T06:37:16;11.47;;;3.37;;
15258;SDS011;34462;51.368;12.364;2023-03-13T06:39:44;9.13;;;3.00;;
15258;SDS011;34462;51.368;12.364;2023-03-13T06:42:12;9.03;;;3.10;;
15258;SDS011;34462;51.368;12.364;2023-03-13T06:44:41;8.17;;;3.27;;
15258;SDS011;34462;51.368;12.364;2023-03-13T06:47:09;10.83;;;3.43;;
15258;SDS011;34462;51.368;12.364;2023-03-13T06:49:40;7.63;;;3.00;;
15258;SDS011;34462;51.368;12.364;2023-03-13T06:52:08;9.93;;;3.00;;
15258;SDS011;34462;51.368;12.364;2023-03-13T06:54:38;10.70;;;2.70;;
15258;SDS011;34462;51.368;12.364;2023-03-13T06:57:06;10.77;;;2.73;;
15258;SDS011;34462;51.368;12.364;2023-03-13T06:59:34;6.57;;;2.70;;
15258;SDS011;34462;51.368;12.364;2023-03-13T07:02:02;8.03;;;2.60;;
15258;SDS011;34462;51.368;12.364;2023-03-13T07:04:31;6.87;;;2.43;;
15258;SDS011;34462;51.368;12.364;2023-03-13T07:06:59;10.87;;;2.57;;
15258;SDS011;34462;51.368;12.364;2023-03-13T07:09:27;6.97;;;2.70;;
15258;SDS011;34462;51.368;12.364;2023-03-13T07:11:57;6.13;;;2.33;;
15258;SDS011;34462;51.368;12.364;2023-03-13T07:14:25;7.03;;;2.43;;
15258;SDS011;34462;51.368;12.364;2023-03-13T07:16:53;8.53;;;2.67;;
15258;SDS011;34462;51.368;12.364;2023-03-13T07:19:23;6.17;;;2.37;;
15258;SDS011;34462;51.368;12.364;2023-03-13T07:21:52;9.30;;;2.80;;
15258;SDS011;34462;51.368;12.364;2023-03-13T07:24:22;10.30;;;2.60;;
15258;SDS011;34462;51.368;12.364;2023-03-13T07:26:51;7.43;;;2.27;;
15258;SDS011;34462;51.368;12.364;2023-03-13T07:29:33;8.20;;;2.60;;
15258;SDS011;34462;51.368;12.364;2023-03-13T07:32:02;5.33;;;2.50;;
15258;SDS011;34462;51.368;12.364;2023-03-13T07:34:30;7.40;;;2.37;;
15258;SDS011;34462;51.368;12.364;2023-03-13T07:36:59;6.20;;;2.20;;
15258;SDS011;34462;51.368;12.364;2023-03-13T07:39:27;8.00;;;2.30;;
15258;SDS011;34462;51.368;12.364;2023-03-13T07:41:55;7.07;;;2.20;;
15258;SDS011;34462;51.368;12.364;2023-03-13T07:44:23;7.97;;;2.40;;
15258;SDS011;34462;51.368;12.364;2023-03-13T07:46:53;5.33;;;2.13;;
15258;SDS011;34462;51.368;12.364;2023-03-13T07:49:21;5.53;;;2.00;;
15258;SDS011;34462;51.368;12.364;2023-03-13T07:51:49;7.20;;;1.80;;
15258;SDS011;34462;51.368;12.364;2023-03-13T07:54:17;3.60;;;1.57;;
15258;SDS011;34462;51.368;12.364;2023-03-13T07:56:46;3.43;;;1.50;;
15258;SDS011;34462;51.368;12.364;2023-03-13T07:59:14;4.20;;;1.70;;
15258;SDS011;34462;51.368;12.364;2023-03-13T08:01:42;2.83;;;1.43;;
15258;SDS011;34462;51.368;12.364;2023-03-13T08:04:12;3.13;;;1.30;;
15258;SDS011;34462;51.368;12.364;2023-03-13T08:06:40;3.60;;;1.27;;
15258;SDS011;34462;51.368;12.364;2023-03-13T08:09:08;4.20;;;1.40;;
15258;SDS011;34462;51.368;12.364;2023-03-13T08:11:37;3.13;;;1.37;;
15258;SDS011;34462;51.368;12.364;2023-03-13T08:14:07;4.30;;;1.40;;
15258;SDS011;34462;51.368;12.364;2023-03-13T08:16:35;2.30;;;1.20;;
15258;SDS011;34462;51.368;12.364;2023-03-13T08:19:03;2.60;;;1.17;;
15258;SDS011;34462;51.368;12.364;2023-03-13T08:21:34;2.83;;;1.20;;
15258;SDS011;34462;51.368;12.364;2023-03-13T08:24:04;2.60;;;1.23;;
15258;SDS011;34462;51.368;12.364;2023-03-13T08:26:36;2.93;;;1.53;;
15258;SDS011;34462;51.368;12.364;2023-03-13T08:29:07;3.60;;;1.67;;
15258;SDS011;34462;51.368;12.364;2023-03-13T08:31:41;2.83;;;1.63;;
15258;SDS011;34462;51.368;12.364;2023-03-13T08:34:13;3.00;;;1.13;;
15258;SDS011;34462;51.368;12.364;2023-03-13T08:36:44;3.43;;;1.23;;
15258;SDS011;34462;51.368;12.364;2023-03-13T08:39:13;5.13;;;1.30;;
15258;SDS011;34462;51.368;12.364;2023-03-13T08:41:44;5.50;;;1.93;;
15258;SDS011;34462;51.368;12.364;2023-03-13T08:44:13;5.57;;;1.70;;
15258;SDS011;34462;51.368;12.364;2023-03-13T08:46:46;8.60;;;3.77;;
15258;SDS011;34462;51.368;12.364;2023-03-13T08:49:15;4.37;;;1.30;;
15258;SDS011;34462;51.368;12.364;2023-03-13T08:51:45;3.60;;;1.10;;
15258;SDS011;34462;51.368;12.364;2023-03-13T08:54:13;2.10;;;1.13;;
15258;SDS011;34462;51.368;12.364;2023-03-13T08:56:41;4.00;;;1.33;;
15258;SDS011;34462;51.368;12.364;2023-03-13T08:59:09;2.13;;;1.13;;
15258;SDS011;34462;51.368;12.364;2023-03-13T09:01:38;3.60;;;1.30;;
15258;SDS011;34462;51.368;12.364;2023-03-13T09:04:06;5.30;;;1.87;;
15258;SDS011;34462;51.368;12.364;2023-03-13T09:06:35;3.33;;;1.10;;
15258;SDS011;34462;51.368;12.364;2023-03-13T09:09:06;3.83;;;1.40;;
15258;SDS011;34462;51.368;12.364;2023-03-13T09:11:36;2.13;;;1.17;;
15258;SDS011;34462;51.368;12.364;2023-03-13T09:14:06;2.27;;;1.00;;
15258;SDS011;34462;51.368;12.364;2023-03-13T09:16:36;2.30;;;1.10;;
15258;SDS011;34462;51.368;12.364;2023-03-13T09:19:04;2.17;;;1.03;;
15258;SDS011;34462;51.368;12.364;2023-03-13T09:21:33;2.97;;;1.20;;
15258;SDS011;34462;51.368;12.364;2023-03-13T09:24:02;1.57;;;1.10;;
15258;SDS011;34462;51.368;12.364;2023-03-13T09:26:32;2.87;;;1.30;;
15258;SDS011;34462;51.368;12.364;2023-03-13T09:29:00;1.90;;;1.20;;
15258;SDS011;34462;51.368;12.364;2023-03-13T09:31:29;2.50;;;1.40;;
15258;SDS011;34462;51.368;12.364;2023-03-13T09:33:59;2.70;;;1.43;;
15258;SDS011;34462;51.368;12.364;2023-03-13T09:36:28;1.17;;;1.00;;
15258;SDS011;34462;51.368;12.364;2023-03-13T09:38:57;1.07;;;0.90;;
15258;SDS011;34462;51.368;12.364;2023-03-13T09:41:28;2.17;;;1.20;;
15258;SDS011;34462;51.368;12.364;2023-03-13T09:44:04;1.10;;;1.00;;
15258;SDS011;34462;51.368;12.364;2023-03-13T09:46:42;1.20;;;1.00;;
15258;SDS011;34462;51.368;12.364;2023-03-13T09:49:26;0.83;;;0.80;;
15258;SDS011;34462;51.368;12.364;2023-03-13T09:52:03;1.63;;;0.80;;
15258;SDS011;34462;51.368;12.364;2023-03-13T09:54:43;1.10;;;0.90;;
15258;SDS011;34462;51.368;12.364;2023-03-13T09:57:21;1.20;;;1.10;;
15258;SDS011;34462;51.368;12.364;2023-03-13T09:59:59;1.33;;;1.23;;
15258;SDS011;34462;51.368;12.364;2023-03-13T10:02:36;1.43;;;1.10;;
15258;SDS011;34462;51.368;12.364;2023-03-13T10:05:07;1.27;;;0.80;;
15258;SDS011;34462;51.368;12.364;2023-03-13T10:07:42;2.38;;;1.20;;
15258;SDS011;34462;51.368;12.364;2023-03-13T10:10:15;1.30;;;0.90;;
15258;SDS011;34462;51.368;12.364;2023-03-13T10:12:50;1.00;;;0.80;;
15258;SDS011;34462;51.368;12.364;2023-03-13T10:15:32;0.93;;;0.82;;
15258;SDS011;34462;51.368;12.364;2023-03-13T10:18:11;1.20;;;1.00;;
15258;SDS011;34462;51.368;12.364;2023-03-13T10:20:45;1.48;;;1.10;;
15258;SDS011;34462;51.368;12.364;2023-03-13T10:23:20;2.47;;;0.95;;
15258;SDS011;34462;51.368;12.364;2023-03-13T10:25:58;0.80;;;0.70;;
15258;SDS011;34462;51.368;12.364;2023-03-13T10:28:28;2.53;;;1.00;;
15258;SDS011;34462;51.368;12.364;2023-03-13T10:30:57;1.40;;;0.80;;
15258;SDS011;34462;51.368;12.364;2023-03-13T10:33:36;5.40;;;1.33;;
15258;SDS011;34462;51.368;12.364;2023-03-13T10:36:05;1.05;;;0.80;;
15258;SDS011;34462;51.368;12.364;2023-03-13T10:38:47;1.00;;;0.90;;
15258;SDS011;34462;51.368;12.364;2023-03-13T10:41:19;1.67;;;0.95;;
15258;SDS011;34462;51.368;12.364;2023-03-13T10:43:54;1.70;;;0.90;;
15258;SDS011;34462;51.368;12.364;2023-03-13T10:46:30;1.00;;;0.90;;
15258;SDS011;34462;51.368;12.364;2023-03-13T10:49:01;2.40;;;0.90;;
15258;SDS011;34462;51.368;12.364;2023-03-13T10:51:33;1.87;;;0.93;;
15258;SDS011;34462;51.368;12.364;2023-03-13T10:54:12;1.00;;;0.90;;
15258;SDS011;34462;51.368;12.364;2023-03-13T10:56:47;0.80;;;0.70;;
15258;SDS011;34462;51.368;12.364;2023-03-13T10:59:19;1.15;;;1.00;;
15258;SDS011;34462;51.368;12.364;2023-03-13T11:01:51;2.20;;;0.95;;
15258;SDS011;34462;51.368;12.364;2023-03-13T11:04:28;1.00;;;0.90;;
15258;SDS011;34462;51.368;12.364;2023-03-13T11:07:03;1.20;;;0.73;;
15258;SDS011;34462;51.368;12.364;2023-03-13T11:09:32;4.45;;;0.90;;
15258;SDS011;34462;51.368;12.364;2023-03-13T11:12:02;2.05;;;0.73;;
15258;SDS011;34462;51.368;12.364;2023-03-13T11:14:37;0.93;;;0.82;;
15258;SDS011;34462;51.368;12.364;2023-03-13T11:17:08;1.08;;;0.80;;
15258;SDS011;34462;51.368;12.364;2023-03-13T11:20:02;1.05;;;0.77;;
15258;SDS011;34462;51.368;12.364;2023-03-13T11:22:41;0.63;;;0.63;;
15258;SDS011;34462;51.368;12.364;2023-03-13T11:25:21;1.35;;;0.90;;
15258;SDS011;34462;51.368;12.364;2023-03-13T11:28:09;1.73;;;0.80;;
15258;SDS011;34462;51.368;12.364;2023-03-13T11:30:57;0.90;;;0.73;;
15258;SDS011;34462;51.368;12.364;2023-03-13T11:33:42;1.30;;;0.90;;
15258;SDS011;34462;51.368;12.364;2023-03-13T11:36:23;2.42;;;1.10;;
15258;SDS011;34462;51.368;12.364;2023-03-13T11:42:03;2.13;;;0.88;;
15258;SDS011;34462;51.368;12.364;2023-03-13T11:44:47;1.20;;;0.98;;
15258;SDS011;34462;51.368;12.364;2023-03-13T11:47:34;1.08;;;0.98;;
15258;SDS011;34462;51.368;12.364;2023-03-13T11:50:22;2.05;;;1.27;;
15258;SDS011;34462;51.368;12.364;2023-03-13T11:53:04;1.35;;;0.95;;
15258;SDS011;34462;51.368;12.364;2023-03-13T11:56:00;1.08;;;1.00;;
15258;SDS011;34462;51.368;12.364;2023-03-13T11:58:54;1.42;;;0.90;;
15258;SDS011;34462;51.368;12.364;2023-03-13T12:01:45;1.33;;;0.95;;
15258;SDS011;34462;51.368;12.364;2023-03-13T12:04:21;1.20;;;0.82;;
15258;SDS011;34462;51.368;12.364;2023-03-13T12:06:59;1.80;;;0.93;;
15258;SDS011;34462;51.368;12.364;2023-03-13T12:09:33;1.00;;;0.90;;
15258;SDS011;34462;51.368;12.364;2023-03-13T12:12:11;1.33;;;1.00;;
15258;SDS011;34462;51.368;12.364;2023-03-13T12:14:51;2.28;;;0.90;;
15258;SDS011;34462;51.368;12.364;2023-03-13T12:17:28;1.63;;;0.80;;
15258;SDS011;34462;51.368;12.364;2023-03-13T12:20:04;1.17;;;0.90;;
15258;SDS011;34462;51.368;12.364;2023-03-13T12:22:44;0.80;;;0.80;;
15258;SDS011;34462;51.368;12.364;2023-03-13T12:25:22;0.88;;;0.70;;
15258;SDS011;34462;51.368;12.364;2023-03-13T12:27:55;1.25;;;1.00;;
15258;SDS011;34462;51.368;12.364;2023-03-13T12:30:37;1.42;;;1.10;;
15258;SDS011;34462;51.368;12.364;2023-03-13T12:33:14;1.20;;;1.10;;
15258;SDS011;34462;51.368;12.364;2023-03-13T12:35:52;1.45;;;1.13;;
15258;SDS011;34462;51.368;12.364;2023-03-13T12:38:32;1.33;;;0.90;;
15258;SDS011;34462;51.368;12.364;2023-03-13T12:41:09;1.20;;;1.10;;
15258;SDS011;34462;51.368;12.364;2023-03-13T12:43:52;2.05;;;1.10;;
15258;SDS011;34462;51.368;12.364;2023-03-13T12:46:38;1.02;;;0.90;;
15258;SDS011;34462;51.368;12.364;2023-03-13T12:49:15;0.80;;;0.80;;
15258;SDS011;34462;51.368;12.364;2023-03-13T12:55:48;2.20;;;1.10;;
15258;SDS011;34462;51.368;12.364;2023-03-13T12:58:38;1.45;;;1.05;;
15258;SDS011;34462;51.368;12.364;2023-03-13T13:01:16;1.05;;;0.80;;
15258;SDS011;34462;51.368;12.364;2023-03-13T13:03:56;2.42;;;1.05;;
15258;SDS011;34462;51.368;12.364;2023-03-13T13:06:28;3.05;;;1.23;;
15258;SDS011;34462;51.368;12.364;2023-03-13T13:09:22;1.20;;;1.05;;
15258;SDS011;34462;51.368;12.364;2023-03-13T13:11:54;2.05;;;1.00;;
15258;SDS011;34462;51.368;12.364;2023-03-13T13:17:39;1.70;;;1.17;;
15258;SDS011;34462;51.368;12.364;2023-03-13T13:32:29;1.42;;;1.05;;
15258;SDS011;34462;51.368;12.364;2023-03-13T13:35:21;2.15;;;1.20;;
15258;SDS011;34462;51.368;12.364;2023-03-13T13:41:03;1.50;;;1.20;;
15258;SDS011;34462;51.368;12.364;2023-03-13T13:46:56;1.90;;;1.38;;
15258;SDS011;34462;51.368;12.364;2023-03-13T13:58:11;3.58;;;1.35;;
15258;SDS011;34462;51.368;12.364;2023-03-13T14:00:50;1.38;;;1.27;;
15258;SDS011;34462;51.368;12.364;2023-03-13T14:03:22;1.52;;;1.10;;
15258;SDS011;34462;51.368;12.364;2023-03-13T14:05:54;2.38;;;1.50;;
15258;SDS011;34462;51.368;12.364;2023-03-13T14:08:27;2.03;;;1.15;;
15258;SDS011;34462;51.368;12.364;2023-03-13T14:11:06;1.35;;;1.25;;
15258;SDS011;34462;51.368;12.364;2023-03-13T14:14:10;1.50;;;1.25;;
15258;SDS011;34462;51.368;12.364;2023-03-13T14:16:45;1.63;;;1.20;;
15258;SDS011;34462;51.368;12.364;2023-03-13T14:19:20;1.92;;;1.27;;
15258;SDS011;34462;51.368;12.364;2023-03-13T14:21:56;1.67;;;1.50;;
15258;SDS011;34462;51.368;12.364;2023-03-13T14:24:26;2.00;;;1.08;;
15258;SDS011;34462;51.368;12.364;2023-03-13T14:26:54;2.80;;;1.20;;
15258;SDS011;34462;51.368;12.364;2023-03-13T14:29:23;3.00;;;1.30;;
15258;SDS011;34462;51.368;12.364;2023-03-13T14:31:54;2.17;;;1.30;;
15258;SDS011;34462;51.368;12.364;2023-03-13T14:34:24;1.65;;;1.50;;
15258;SDS011;34462;51.368;12.364;2023-03-13T14:36:58;2.75;;;1.40;;
15258;SDS011;34462;51.368;12.364;2023-03-13T14:39:43;1.30;;;1.20;;
15258;SDS011;34462;51.368;12.364;2023-03-13T14:42:14;2.75;;;1.60;;
15258;SDS011;34462;51.368;12.364;2023-03-13T14:44:44;1.55;;;1.30;;
15258;SDS011;34462;51.368;12.364;2023-03-13T14:47:19;1.17;;;1.10;;
15258;SDS011;34462;51.368;12.364;2023-03-13T14:49:54;2.42;;;1.50;;
15258;SDS011;34462;51.368;12.364;2023-03-13T14:52:25;1.50;;;1.40;;
15258;SDS011;34462;51.368;12.364;2023-03-13T14:54:56;1.50;;;1.33;;
15258;SDS011;34462;51.368;12.364;2023-03-13T14:57:29;3.05;;;1.55;;
15258;SDS011;34462;51.368;12.364;2023-03-13T15:03:17;1.35;;;1.25;;
15258;SDS011;34462;51.368;12.364;2023-03-13T15:06:02;1.60;;;1.48;;
15258;SDS011;34462;51.368;12.364;2023-03-13T15:08:44;2.67;;;1.30;;
15258;SDS011;34462;51.368;12.364;2023-03-13T15:11:16;3.40;;;2.13;;
15258;SDS011;34462;51.368;12.364;2023-03-13T15:13:53;1.65;;;1.30;;
15258;SDS011;34462;51.368;12.364;2023-03-13T15:16:22;1.40;;;1.30;;
15258;SDS011;34462;51.368;12.364;2023-03-13T15:18:54;1.35;;;1.13;;
15258;SDS011;34462;51.368;12.364;2023-03-13T15:21:26;1.80;;;1.30;;
15258;SDS011;34462;51.368;12.364;2023-03-13T15:23:58;1.63;;;1.50;;
15258;SDS011;34462;51.368;12.364;2023-03-13T15:26:29;1.48;;;1.30;;
15258;SDS011;34462;51.368;12.364;2023-03-13T15:28:57;1.50;;;1.40;;
15258;SDS011;34462;51.368;12.364;2023-03-13T15:31:26;1.77;;;1.40;;
15258;SDS011;34462;51.368;12.364;2023-03-13T15:33:57;2.30;;;1.63;;
15258;SDS011;34462;51.368;12.364;2023-03-13T15:36:28;2.22;;;1.52;;
15258;SDS011;34462;51.368;12.364;2023-03-13T15:38:57;1.77;;;1.50;;
15258;SDS011;34462;51.368;12.364;2023-03-13T15:41:25;2.65;;;1.50;;